Time;durP1;ratioP1;P1;durP2;ratioP2;P2;SDS_P1;SDS_P2;PMS_P1;PMS_P2;Temp;Humidity;BMP_temperature;BMP_pressure;BME280_temperature;BME280_humidity;BME280_pressure;Samples;Min_cycle;Max_cycle;Signal;HPM_P1;HPM_P2
2022/08/22 00:00:15;;;;;;;3.72;3.42;;;22.80;59.90;;;;;;6186597;23;20131;-88
2022/08/22 00:03:13;;;;;;;3.63;3.30;;;22.80;60.00;;;;;;6137130;23;20245;-87
2022/08/22 00:05:50;;;;;;;4.10;3.70;;;22.80;60.00;;;;;;6160230;23;20167;-88
2022/08/22 00:08:22;;;;;;;4.05;3.65;;;22.80;60.00;;;;;;6137135;23;20134;-87
2022/08/22 00:11:20;;;;;;;3.92;3.53;;;22.80;60.00;;;;;;6112206;23;20194;-87
2022/08/22 00:13:59;;;;;;;3.45;3.15;;;22.80;60.10;;;;;;6160391;23;20490;-88
2022/08/22 00:16:35;;;;;;;3.83;3.53;;;22.80;60.10;;;;;;6136892;23;20135;-87
2022/08/22 00:19:13;;;;;;;4.07;3.70;;;22.80;60.10;;;;;;6112122;23;20174;-87
2022/08/22 00:21:48;;;;;;;4.22;3.78;;;22.90;60.20;;;;;;6111649;23;20165;-88
2022/08/22 00:24:34;;;;;;;3.92;3.40;;;22.80;60.10;;;;;;6110908;23;20211;-88
2022/08/22 00:27:13;;;;;;;3.78;3.47;;;22.80;60.10;;;;;;6135859;23;20151;-88
2022/08/22 00:29:43;;;;;;;3.65;3.35;;;22.80;60.10;;;;;;6137522;23;20597;-88
2022/08/22 00:32:40;;;;;;;4.25;3.80;;;22.80;60.10;;;;;;6136314;23;20135;-87
2022/08/22 00:35:14;;;;;;;4.00;3.70;;;22.90;60.20;;;;;;6186491;23;20142;-88
2022/08/22 00:37:46;;;;;;;3.92;3.53;;;22.80;60.10;;;;;;6112826;23;20150;-87
2022/08/22 00:40:40;;;;;;;3.97;3.58;;;22.80;60.10;;;;;;6112158;23;20146;-87
2022/08/22 00:43:30;;;;;;;4.00;3.60;;;22.80;60.20;;;;;;6186107;23;20501;-87
2022/08/22 00:46:20;;;;;;;4.00;3.60;;;22.90;60.20;;;;;;6135226;23;20180;-88
2022/08/22 00:49:21;;;;;;;3.70;3.40;;;22.80;60.20;;;;;;6186149;23;20210;-88
2022/08/22 00:52:11;;;;;;;3.88;3.53;;;22.80;60.20;;;;;;6186397;23;20524;-87
2022/08/22 00:55:02;;;;;;;3.97;3.58;;;22.80;60.30;;;;;;6135987;23;20532;-87
2022/08/22 00:57:46;;;;;;;3.63;3.13;;;22.80;60.30;;;;;;6160249;23;20150;-87
2022/08/22 01:00:17;;;;;;;4.03;3.70;;;22.80;61.10;;;;;;6160428;23;20145;-88
2022/08/22 01:03:21;;;;;;;4.30;3.50;;;22.80;60.40;;;;;;6160472;23;20157;-87
2022/08/22 01:06:03;;;;;;;3.97;3.63;;;22.80;60.40;;;;;;6185876;23;20162;-87
2022/08/22 01:09:02;;;;;;;3.55;3.25;;;22.80;60.40;;;;;;6137611;23;20131;-87
2022/08/22 01:11:47;;;;;;;3.97;3.58;;;22.80;60.40;;;;;;6167039;23;20187;-88
2022/08/22 01:14:28;;;;;;;4.70;3.60;;;22.80;60.40;;;;;;6185833;23;20134;-87
2022/08/22 01:17:32;;;;;;;3.78;3.47;;;22.80;60.50;;;;;;6136750;23;20200;-87
2022/08/22 01:20:32;;;;;;;3.80;3.50;;;22.80;60.50;;;;;;6185860;23;20139;-87
2022/08/22 01:23:19;;;;;;;3.45;3.15;;;22.80;60.50;;;;;;6159778;23;20177;-87
2022/08/22 01:26:24;;;;;;;3.85;3.47;;;22.80;60.50;;;;;;6112996;23;20181;-88
2022/08/22 01:29:14;;;;;;;3.65;3.35;;;22.80;60.60;;;;;;6164089;23;20141;-87
2022/08/22 01:32:03;;;;;;;3.97;3.65;;;22.80;61.40;;;;;;6113422;23;20154;-88
2022/08/22 01:34:52;;;;;;;3.83;3.47;;;22.80;60.60;;;;;;6134815;23;20486;-87
2022/08/22 01:37:42;;;;;;;4.00;3.60;;;22.80;60.60;;;;;;6138920;23;20147;-87
2022/08/22 01:40:34;;;;;;;4.20;3.80;;;22.80;60.70;;;;;;6159463;23;20599;-87
2022/08/22 01:43:23;;;;;;;3.80;3.45;;;22.80;60.70;;;;;;6159841;23;20172;-87
2022/08/22 01:46:21;;;;;;;3.75;3.33;;;22.80;60.70;;;;;;6185975;23;20170;-87
2022/08/22 01:48:49;;;;;;;3.88;3.58;;;22.80;60.80;;;;;;6163389;23;20230;-87
2022/08/22 01:51:27;;;;;;;4.10;3.70;;;22.80;60.70;;;;;;6110879;23;20149;-87
2022/08/22 01:54:09;;;;;;;4.10;3.53;;;22.80;60.70;;;;;;6159850;23;20225;-87
2022/08/22 01:56:40;;;;;;;4.07;3.67;;;22.80;60.80;;;;;;6159225;23;20258;-87
2022/08/22 01:59:09;;;;;;;3.60;3.28;;;22.80;60.80;;;;;;6134873;23;20151;-87
2022/08/22 02:01:44;;;;;;;3.45;3.15;;;22.80;60.80;;;;;;6159268;23;20149;-87
2022/08/22 02:04:35;;;;;;;3.78;3.47;;;22.80;60.80;;;;;;6135924;23;20150;-87
2022/08/22 02:07:24;;;;;;;4.00;3.60;;;22.80;60.90;;;;;;6163535;23;20154;-87
2022/08/22 02:10:12;;;;;;;4.05;3.65;;;22.80;60.80;;;;;;6159085;23;20198;-88
2022/08/22 02:12:47;;;;;;;3.42;3.13;;;22.80;60.90;;;;;;6159431;23;20135;-87
2022/08/22 02:15:20;;;;;;;4.20;3.80;;;22.80;60.80;;;;;;6134901;23;20142;-87
2022/08/22 02:18:09;;;;;;;3.67;3.38;;;22.80;60.90;;;;;;6134448;23;20146;-87
2022/08/22 02:20:42;;;;;;;3.60;3.30;;;22.80;60.90;;;;;;6162613;23;20135;-87
2022/08/22 02:23:31;;;;;;;3.75;3.45;;;22.80;61.00;;;;;;6135934;23;20135;-87
2022/08/22 02:26:08;;;;;;;3.92;3.53;;;22.80;60.90;;;;;;6185467;23;20167;-87
2022/08/22 02:28:59;;;;;;;3.45;3.15;;;22.80;61.00;;;;;;6135014;23;20225;-87
2022/08/22 02:31:48;;;;;;;4.07;3.70;;;22.80;61.00;;;;;;6135282;23;20139;-87
2022/08/22 02:34:30;;;;;;;3.90;3.60;;;22.70;61.00;;;;;;6114760;23;20147;-87
2022/08/22 02:37:03;;;;;;;3.40;3.10;;;22.70;60.90;;;;;;6159386;23;20134;-88
2022/08/22 02:39:39;;;;;;;3.80;3.40;;;22.70;60.90;;;;;;6135404;23;20574;-88
2022/08/22 02:42:26;;;;;;;4.13;3.72;;;22.70;60.90;;;;;;6136024;23;20146;-87
2022/08/22 02:44:59;;;;;;;3.63;3.33;;;22.70;61.00;;;;;;6158904;23;20177;-87
2022/08/22 02:47:31;;;;;;;4.15;3.75;;;22.80;61.00;;;;;;6111480;23;20641;-88
2022/08/22 02:50:05;;;;;;;4.00;3.60;;;22.70;61.00;;;;;;6135669;23;20563;-88
2022/08/22 02:53:04;;;;;;;3.67;3.33;;;22.80;61.00;;;;;;6135211;23;20135;-87
2022/08/22 02:55:37;;;;;;;3.80;3.50;;;22.80;61.10;;;;;;6159380;23;20143;-88
2022/08/22 02:58:18;;;;;;;3.47;3.15;;;22.70;61.10;;;;;;6135167;23;20142;-87
2022/08/22 03:00:48;;;;;;;4.05;3.65;;;22.80;62.00;;;;;;6110741;23;20228;-87
2022/08/22 03:03:24;;;;;;;4.07;3.50;;;22.70;61.10;;;;;;6135349;23;20143;-87
2022/08/22 03:05:56;;;;;;;3.88;3.50;;;22.70;61.10;;;;;;6111175;23;20240;-87
2022/08/22 03:08:27;;;;;;;3.90;3.60;;;22.70;61.20;;;;;;6137068;23;20210;-87
2022/08/22 03:11:20;;;;;;;4.00;3.60;;;22.70;61.20;;;;;;6112736;23;20277;-87
2022/08/22 03:14:08;;;;;;;4.05;3.40;;;22.70;62.00;;;;;;6165176;23;20151;-87
2022/08/22 03:16:45;;;;;;;3.80;3.50;;;22.70;61.20;;;;;;6163701;23;20145;-87
2022/08/22 03:19:16;;;;;;;3.97;3.58;;;22.70;61.20;;;;;;6064272;23;20169;-87
2022/08/22 03:21:59;;;;;;;3.47;3.17;;;22.80;61.30;;;;;;6136989;23;20200;-88
2022/08/22 03:24:39;;;;;;;3.97;3.58;;;22.70;61.40;;;;;;6163840;23;20134;-88
2022/08/22 03:27:20;;;;;;;3.45;3.13;;;22.70;61.30;;;;;;6163527;23;20209;-87
2022/08/22 03:29:49;;;;;;;3.60;3.30;;;22.70;61.30;;;;;;6138747;23;20135;-87
2022/08/22 03:32:19;;;;;;;3.70;3.40;;;22.70;61.40;;;;;;6111879;23;20149;-87
2022/08/22 03:35:02;;;;;;;3.60;3.30;;;22.70;61.30;;;;;;6112460;23;20169;-87
2022/08/22 03:37:46;;;;;;;3.40;3.10;;;22.70;61.40;;;;;;6112414;23;20570;-87
2022/08/22 03:40:30;;;;;;;3.40;3.10;;;22.70;61.40;;;;;;6160656;23;20222;-87
2022/08/22 03:43:30;;;;;;;3.70;3.35;;;22.70;61.40;;;;;;6112324;23;20598;-87
2022/08/22 03:46:09;;;;;;;3.50;3.20;;;22.70;61.40;;;;;;6167924;23;20163;-87
2022/08/22 03:49:10;;;;;;;3.97;3.35;;;22.70;61.40;;;;;;6137652;23;20551;-86
2022/08/22 03:52:00;;;;;;;3.80;3.50;;;22.70;61.50;;;;;;6164271;23;20542;-87
2022/08/22 03:54:54;;;;;;;3.47;3.17;;;22.70;61.50;;;;;;6160582;23;20205;-87
2022/08/22 03:57:36;;;;;;;4.07;3.30;;;22.70;61.50;;;;;;6140244;23;20139;-88
2022/08/22 04:00:31;;;;;;;3.53;3.22;;;22.70;61.50;;;;;;6160780;23;20143;-87
2022/08/22 04:03:31;;;;;;;3.40;3.10;;;22.70;61.50;;;;;;6144087;23;20201;-87
2022/08/22 04:06:17;;;;;;;3.60;3.30;;;22.70;61.50;;;;;;6164949;23;20162;-87
2022/08/22 04:09:22;;;;;;;3.88;3.47;;;22.70;61.50;;;;;;6114502;23;20154;-87
2022/08/22 04:12:12;;;;;;;3.50;3.20;;;22.70;61.50;;;;;;6165470;23;20633;-87
2022/08/22 04:15:03;;;;;;;3.83;3.50;;;22.70;61.50;;;;;;6160505;23;20186;-88
2022/08/22 04:17:52;;;;;;;3.58;3.25;;;22.70;61.50;;;;;;6164499;23;20226;-88
2022/08/22 04:20:26;;;;;;;3.90;3.50;;;22.70;61.60;;;;;;6163762;23;20131;-87
2022/08/22 04:23:06;;;;;;;3.45;3.15;;;22.70;61.50;;;;;;6162207;23;20206;-87
2022/08/22 04:25:37;;;;;;;4.00;3.60;;;22.70;61.50;;;;;;6137165;23;20493;-88
2022/08/22 04:28:09;;;;;;;3.70;3.38;;;22.70;61.50;;;;;;6112833;23;20162;-87
2022/08/22 04:30:42;;;;;;;3.60;3.30;;;22.70;61.50;;;;;;6136854;23;20186;-88
2022/08/22 04:33:14;;;;;;;3.60;3.30;;;22.70;61.60;;;;;;6136526;23;20135;-87
2022/08/22 04:36:01;;;;;;;3.90;3.50;;;22.70;61.50;;;;;;6136114;23;20170;-88
2022/08/22 04:38:47;;;;;;;3.58;3.10;;;22.70;61.60;;;;;;6114756;23;20186;-88
2022/08/22 04:41:19;;;;;;;3.72;3.40;;;22.70;61.60;;;;;;6112691;23;20150;-87
2022/08/22 04:43:54;;;;;;;3.38;3.08;;;22.70;61.60;;;;;;6136919;23;20213;-87
2022/08/22 04:46:31;;;;;;;3.40;3.10;;;22.70;61.50;;;;;;6085992;23;20186;-87
2022/08/22 04:49:04;;;;;;;3.47;3.17;;;22.80;61.60;;;;;;6160166;23;20137;-87
2022/08/22 04:51:39;;;;;;;3.75;3.35;;;22.70;61.40;;;;;;6160186;23;20202;-87
2022/08/22 04:54:43;;;;;;;4.15;3.40;;;22.80;61.40;;;;;;6135972;23;20236;-87
2022/08/22 04:57:33;;;;;;;3.75;3.42;;;22.80;61.40;;;;;;6159998;23;20229;-87
2022/08/22 05:00:02;;;;;;;3.75;3.40;;;22.80;61.40;;;;;;6139238;23;20158;-87
2022/08/22 05:02:29;;;;;;;3.55;3.25;;;22.80;61.40;;;;;;6135090;23;20153;-88
2022/08/22 05:05:02;;;;;;;3.38;2.88;;;22.80;61.40;;;;;;6110833;23;20688;-86
2022/08/22 05:07:36;;;;;;;3.20;2.90;;;22.80;61.50;;;;;;6137018;23;20139;-88
2022/08/22 05:10:08;;;;;;;3.08;2.78;;;22.90;61.50;;;;;;6085991;23;20190;-88
2022/08/22 05:12:36;;;;;;;2.55;2.35;;;22.90;61.40;;;;;;6160988;23;20131;-87
2022/08/22 05:15:06;;;;;;;2.90;2.70;;;23.00;61.30;;;;;;6135801;23;20577;-87
2022/08/22 05:17:32;;;;;;;2.75;2.55;;;23.00;61.20;;;;;;6111332;23;20155;-87
2022/08/22 05:20:02;;;;;;;2.72;2.50;;;23.00;61.00;;;;;;6135306;23;20138;-87
2022/08/22 05:22:30;;;;;;;3.83;2.97;;;23.10;61.10;;;;;;6135635;23;20281;-88
2022/08/22 05:25:03;;;;;;;2.88;2.67;;;23.10;60.90;;;;;;6135392;23;20234;-87
2022/08/22 05:27:34;;;;;;;2.55;2.35;;;23.00;61.00;;;;;;6135816;23;20455;-87
2022/08/22 05:30:06;;;;;;;2.95;2.75;;;23.10;61.00;;;;;;6136082;23;20138;-89
2022/08/22 05:32:39;;;;;;;2.97;2.67;;;23.10;60.70;;;;;;6111094;23;20205;-87
2022/08/22 05:35:05;;;;;;;2.80;2.60;;;23.10;60.70;;;;;;6136476;23;20230;-87
2022/08/22 05:37:46;;;;;;;2.28;2.05;;;23.10;60.90;;;;;;6110761;23;20154;-88
2022/08/22 05:40:23;;;;;;;3.00;2.60;;;23.20;60.70;;;;;;6136915;23;20157;-88
2022/08/22 05:42:48;;;;;;;3.00;2.70;;;23.10;60.50;;;;;;6111327;23;20233;-88
2022/08/22 05:45:26;;;;;;;2.80;2.60;;;23.20;60.60;;;;;;6110584;23;20201;-88
2022/08/22 05:48:09;;;;;;;2.80;2.60;;;23.20;60.50;;;;;;6112886;23;20216;-88
2022/08/22 05:50:38;;;;;;;2.67;2.47;;;23.10;60.70;;;;;;6159633;23;20254;-86
2022/08/22 05:53:08;;;;;;;2.78;2.50;;;23.20;60.70;;;;;;6159857;23;20134;-87
2022/08/22 05:55:59;;;;;;;3.05;2.75;;;23.20;60.60;;;;;;6111154;23;20154;-87
2022/08/22 05:58:44;;;;;;;2.78;2.58;;;23.10;60.70;;;;;;6160314;23;20169;-88
2022/08/22 06:01:33;;;;;;;2.67;2.47;;;23.10;60.90;;;;;;6134835;23;20804;-87
2022/08/22 06:04:21;;;;;;;2.95;2.65;;;23.00;61.20;;;;;;6116101;23;20150;-87
2022/08/22 06:06:55;;;;;;;2.83;2.63;;;23.00;61.20;;;;;;6135616;23;20229;-87
2022/08/22 06:09:31;;;;;;;3.28;2.50;;;23.00;61.50;;;;;;6111650;23;20477;-87
2022/08/22 06:12:05;;;;;;;3.30;2.55;;;23.00;61.40;;;;;;6111117;23;20205;-87
2022/08/22 06:14:42;;;;;;;3.05;2.50;;;22.90;61.40;;;;;;6110985;23;20162;-87
2022/08/22 06:17:24;;;;;;;3.17;2.60;;;22.90;61.50;;;;;;6111652;23;20586;-87
2022/08/22 06:19:51;;;;;;;3.42;2.60;;;22.90;61.70;;;;;;6135984;23;20134;-89
2022/08/22 06:22:25;;;;;;;2.90;2.60;;;22.90;61.60;;;;;;6111638;23;20513;-87
2022/08/22 06:25:04;;;;;;;4.75;2.95;;;22.90;61.50;;;;;;6160662;23;20498;-88
2022/08/22 06:27:30;;;;;;;3.83;2.60;;;22.90;61.60;;;;;;6112618;23;20170;-87
2022/08/22 06:30:00;;;;;;;2.65;2.33;;;22.90;61.80;;;;;;6110983;23;20579;-86
2022/08/22 06:32:34;;;;;;;3.47;2.70;;;22.90;61.80;;;;;;6135180;23;20151;-86
2022/08/22 06:35:03;;;;;;;2.85;2.50;;;22.90;61.80;;;;;;6086877;23;20161;-88
2022/08/22 06:37:32;;;;;;;3.40;2.25;;;23.00;61.80;;;;;;6135638;23;20227;-87
2022/08/22 06:40:00;;;;;;;3.78;2.42;;;23.00;61.80;;;;;;6113232;23;20225;-88
2022/08/22 06:42:28;;;;;;;2.97;2.45;;;23.00;61.70;;;;;;6187319;23;20149;-88
2022/08/22 06:45:15;;;;;;;3.40;2.58;;;23.00;61.50;;;;;;6113583;23;20171;-89
2022/08/22 06:47:49;;;;;;;5.00;2.47;;;23.10;61.50;;;;;;6140729;23;20201;-87
2022/08/22 06:50:23;;;;;;;4.53;2.20;;;23.10;61.50;;;;;;6188374;23;20490;-88
2022/08/22 06:52:52;;;;;;;4.10;2.33;;;23.20;61.40;;;;;;6115414;23;20153;-90
2022/08/22 06:55:18;;;;;;;3.33;2.42;;;23.20;61.30;;;;;;6138627;23;20147;-86
2022/08/22 06:58:00;;;;;;;2.85;2.65;;;23.10;61.20;;;;;;6113192;23;20581;-88
2022/08/22 07:00:30;;;;;;;5.35;2.80;;;23.10;61.40;;;;;;6112564;23;20238;-88
2022/08/22 07:03:01;;;;;;;3.75;2.40;;;23.10;61.40;;;;;;6136012;23;20606;-88
2022/08/22 07:05:37;;;;;;;3.65;2.47;;;23.10;61.40;;;;;;6113906;23;20179;-89
2022/08/22 07:08:20;;;;;;;3.38;3.05;;;23.20;61.40;;;;;;6090316;23;20155;-88
2022/08/22 07:11:04;;;;;;;3.33;2.50;;;23.10;61.20;;;;;;6138606;23;20517;-87
2022/08/22 07:13:44;;;;;;;4.72;2.88;;;23.20;61.50;;;;;;6115291;23;20193;-89
2022/08/22 07:16:37;;;;;;;5.22;2.30;;;23.20;61.30;;;;;;6139748;23;20173;-88
2022/08/22 07:19:16;;;;;;;3.35;2.88;;;23.20;61.30;;;;;;6067361;23;20151;-88
2022/08/22 07:21:46;;;;;;;2.40;2.03;;;23.20;61.30;;;;;;6113270;23;20154;-87
2022/08/22 07:24:21;;;;;;;3.42;2.55;;;23.20;61.40;;;;;;6111437;23;20159;-87
2022/08/22 07:27:16;;;;;;;4.88;2.80;;;23.30;61.50;;;;;;6113271;23;20265;-87
2022/08/22 07:30:26;;;;;;;5.15;2.65;;;23.20;61.60;;;;;;6139681;23;20158;-88
2022/08/22 07:33:01;;;;;;;4.10;2.58;;;23.20;61.40;;;;;;6116616;23;20166;-88
2022/08/22 07:35:32;;;;;;;3.90;2.90;;;23.30;61.50;;;;;;6118582;23;20210;-88
2022/08/22 07:38:07;;;;;;;3.80;2.83;;;23.30;61.30;;;;;;6142643;23;20194;-88
2022/08/22 07:40:47;;;;;;;4.80;2.90;;;23.20;61.30;;;;;;6140722;23;20149;-88
2022/08/22 07:43:27;;;;;;;4.07;3.00;;;23.20;61.40;;;;;;6141208;23;20158;-88
2022/08/22 07:45:58;;;;;;;3.83;3.00;;;23.10;61.60;;;;;;6165990;23;20181;-88
2022/08/22 07:48:33;;;;;;;4.22;3.00;;;23.20;62.00;;;;;;6114800;23;20181;-88
2022/08/22 07:51:07;;;;;;;4.32;3.10;;;23.20;61.70;;;;;;6116273;23;20470;-89
2022/08/22 07:53:42;;;;;;;3.55;2.97;;;23.20;61.70;;;;;;6115518;23;20153;-88
2022/08/22 07:56:15;;;;;;;3.08;2.70;;;23.20;61.80;;;;;;6140290;23;20188;-88
2022/08/22 07:58:43;;;;;;;3.03;2.67;;;23.20;61.50;;;;;;6111938;23;20159;-89
2022/08/22 08:01:14;;;;;;;4.03;2.60;;;23.20;61.50;;;;;;6135912;23;20147;-88
2022/08/22 08:03:42;;;;;;;4.80;2.97;;;23.20;61.60;;;;;;6111298;23;20159;-89
2022/08/22 08:06:13;;;;;;;4.80;2.75;;;23.20;61.40;;;;;;6139508;23;20183;-88
2022/08/22 08:08:43;;;;;;;5.13;3.00;;;23.20;61.30;;;;;;6115362;23;20161;-88
2022/08/22 08:11:17;;;;;;;6.55;2.80;;;23.20;61.20;;;;;;6116283;23;20194;-88
2022/08/22 08:13:50;;;;;;;4.90;3.08;;;23.20;62.00;;;;;;6091550;23;20210;-87
2022/08/22 08:16:22;;;;;;;3.10;2.45;;;23.20;60.80;;;;;;6116699;23;20151;-87
2022/08/22 08:18:51;;;;;;;3.97;2.53;;;23.30;60.40;;;;;;6089007;23;20579;-87
2022/08/22 08:21:36;;;;;;;3.20;2.30;;;23.30;59.90;;;;;;6137567;23;20216;-88
2022/08/22 08:24:06;;;;;;;3.25;2.42;;;23.40;59.70;;;;;;6139025;23;20174;-88
2022/08/22 08:29:39;;;;;;;4.65;2.75;;;23.40;59.00;;;;;;6126782;23;20170;-87
2022/08/22 08:32:10;;;;;;;2.92;2.28;;;23.40;59.30;;;;;;6138005;23;20177;-87
2022/08/22 08:35:16;;;;;;;4.93;2.40;;;23.50;58.60;;;;;;6114265;23;20150;-88
2022/08/22 08:37:47;;;;;;;4.30;2.10;;;23.50;57.90;;;;;;6099801;23;20185;-88
2022/08/22 08:40:23;;;;;;;3.97;2.72;;;23.60;57.50;;;;;;6139750;23;20502;-87
2022/08/22 08:46:16;;;;;;;2.97;2.47;;;23.40;57.60;;;;;;6165208;23;20228;-88
2022/08/22 08:49:15;;;;;;;4.50;2.70;;;23.40;57.40;;;;;;6117649;23;20474;-86
2022/08/22 08:52:06;;;;;;;3.08;2.42;;;23.40;56.90;;;;;;6164534;23;20146;-87
2022/08/22 08:54:56;;;;;;;7.18;2.75;;;23.40;57.20;;;;;;6190801;23;20127;-87
2022/08/22 08:57:57;;;;;;;7.28;2.53;;;23.30;56.80;;;;;;6144611;23;20634;-87
2022/08/22 09:00:55;;;;;;;6.95;2.72;;;23.30;56.50;;;;;;6164472;23;20139;-88
2022/08/22 09:03:57;;;;;;;3.47;2.60;;;23.40;56.60;;;;;;6143522;23;20210;-86
2022/08/22 09:06:54;;;;;;;3.97;2.50;;;23.40;56.60;;;;;;6143973;23;20664;-88
2022/08/22 09:09:49;;;;;;;4.20;2.35;;;23.50;56.50;;;;;;6117246;23;20157;-89
2022/08/22 09:12:35;;;;;;;5.88;2.70;;;23.50;56.30;;;;;;6123618;23;20189;-90
2022/08/22 09:15:17;;;;;;;6.05;2.70;;;23.50;56.20;;;;;;6115567;23;20154;-87
2022/08/22 09:18:04;;;;;;;5.25;2.47;;;23.50;56.10;;;;;;6117420;23;20516;-88
2022/08/22 09:20:55;;;;;;;2.75;1.90;;;23.50;55.80;;;;;;6144385;23;20146;-88
2022/08/22 09:24:07;;;;;;;3.45;2.55;;;23.50;55.70;;;;;;6058927;23;20236;-88
2022/08/22 09:26:48;;;;;;;3.42;2.20;;;23.60;55.30;;;;;;6042933;23;20512;-88
2022/08/22 09:29:37;;;;;;;4.55;2.53;;;23.60;55.20;;;;;;6018835;23;20153;-88
2022/08/22 09:32:12;;;;;;;2.90;1.98;;;23.60;54.90;;;;;;6042905;23;20165;-88
2022/08/22 09:35:03;;;;;;;2.70;1.73;;;23.80;54.30;;;;;;5951446;23;20198;-88
2022/08/22 09:37:37;;;;;;;8.98;2.75;;;23.90;54.00;;;;;;6017322;23;20150;-88
2022/08/22 09:40:24;;;;;;;5.05;2.40;;;23.90;54.10;;;;;;5974330;23;20154;-87
2022/08/22 09:43:08;;;;;;;6.47;2.38;;;23.80;54.30;;;;;;6024176;23;20157;-88
2022/08/22 09:45:56;;;;;;;5.10;2.78;;;23.70;54.30;;;;;;5999378;23;20197;-88
2022/08/22 09:48:32;;;;;;;4.15;2.08;;;23.70;54.20;;;;;;6046135;23;20218;-89
2022/08/22 09:51:16;;;;;;;3.30;2.20;;;23.60;54.40;;;;;;5998717;23;20153;-87
2022/08/22 09:54:01;;;;;;;6.25;2.40;;;23.70;54.30;;;;;;6040474;23;20152;-88
2022/08/22 09:56:59;;;;;;;5.35;2.00;;;23.60;54.00;;;;;;6104284;23;20155;-87
2022/08/22 09:59:56;;;;;;;3.63;2.10;;;23.80;53.20;;;;;;6039373;23;20155;-89
2022/08/22 10:02:39;;;;;;;3.25;2.15;;;23.80;53.00;;;;;;6070483;23;20159;-88
2022/08/22 10:05:14;;;;;;;3.33;2.35;;;23.90;52.90;;;;;;6040856;23;20179;-88
2022/08/22 10:08:06;;;;;;;5.10;2.10;;;23.90;52.80;;;;;;6057923;23;20159;-88
2022/08/22 10:10:59;;;;;;;5.00;2.60;;;23.80;52.80;;;;;;6028876;23;20203;-88
2022/08/22 10:13:48;;;;;;;7.43;2.50;;;23.80;52.90;;;;;;6070607;23;20192;-88
2022/08/22 10:16:55;;;;;;;2.97;2.53;;;23.70;53.00;;;;;;6027294;23;20461;-88
2022/08/22 10:19:31;;;;;;;3.70;2.30;;;23.60;52.70;;;;;;6077460;23;20594;-86
2022/08/22 10:22:28;;;;;;;5.35;2.40;;;23.50;52.10;;;;;;6036651;23;20497;-87
2022/08/22 10:25:25;;;;;;;4.43;2.38;;;23.60;52.00;;;;;;6107755;23;20206;-89
2022/08/22 10:28:07;;;;;;;3.40;2.20;;;23.50;51.90;;;;;;6107346;23;20179;-88
2022/08/22 10:31:05;;;;;;;9.63;2.85;;;23.40;51.70;;;;;;6110972;23;20143;-88
2022/08/22 10:33:47;;;;;;;5.95;2.78;;;23.40;52.00;;;;;;6084444;23;20152;-88
2022/08/22 10:36:29;;;;;;;2.72;2.10;;;23.40;51.70;;;;;;6089699;23;20506;-89
2022/08/22 10:39:00;;;;;;;2.70;2.20;;;23.30;51.20;;;;;;6011925;23;20160;-87
2022/08/22 10:41:53;;;;;;;2.65;2.10;;;23.30;50.70;;;;;;6025915;23;20706;-88
2022/08/22 10:44:24;;;;;;;3.17;2.10;;;23.40;50.50;;;;;;6028438;23;20156;-88
2022/08/22 10:47:01;;;;;;;2.38;2.00;;;23.30;50.40;;;;;;6073416;23;20527;-87
2022/08/22 10:49:38;;;;;;;2.83;2.15;;;23.40;50.10;;;;;;6027897;23;20273;-88
2022/08/22 10:52:10;;;;;;;3.63;2.08;;;23.30;50.10;;;;;;6048518;23;20208;-88
2022/08/22 10:55:16;;;;;;;3.70;1.90;;;23.30;49.90;;;;;;6052100;23;20629;-88
2022/08/22 10:57:52;;;;;;;2.75;2.10;;;23.30;49.50;;;;;;6055163;23;20160;-88
2022/08/22 11:00:34;;;;;;;3.58;1.80;;;23.30;49.50;;;;;;6024940;23;20160;-86
2022/08/22 11:03:19;;;;;;;2.53;1.88;;;23.30;49.40;;;;;;6050021;23;20153;-88
2022/08/22 11:05:48;;;;;;;3.15;2.00;;;23.30;49.30;;;;;;6049507;23;20280;-89
2022/08/22 11:08:45;;;;;;;2.85;2.10;;;23.30;49.20;;;;;;6025935;23;20156;-87
2022/08/22 11:11:15;;;;;;;2.88;2.20;;;23.40;49.40;;;;;;6155481;23;20673;-87
2022/08/22 11:13:50;;;;;;;3.05;2.08;;;23.40;49.50;;;;;;6137422;23;20217;-87
2022/08/22 11:16:55;;;;;;;3.25;1.75;;;23.40;49.70;;;;;;6137307;23;20131;-87
2022/08/22 11:20:15;;;;;;;2.10;1.90;;;23.40;49.40;;;;;;6115227;23;20470;-87
2022/08/22 11:23:25;;;;;;;3.72;1.92;;;23.40;49.00;;;;;;6160053;23;20154;-87
2022/08/22 11:26:45;;;;;;;5.15;2.03;;;23.40;48.60;;;;;;6117866;23;20265;-87
2022/08/22 11:29:37;;;;;;;5.78;2.08;;;23.40;48.60;;;;;;6163010;23;20147;-88
2022/08/22 11:32:28;;;;;;;2.97;2.10;;;23.40;48.50;;;;;;6161098;23;20517;-88
2022/08/22 11:35:19;;;;;;;7.05;2.17;;;23.40;48.50;;;;;;6095324;23;20180;-88
2022/08/22 11:38:05;;;;;;;6.35;2.30;;;23.30;48.50;;;;;;6138346;23;20154;-89
2022/08/22 11:40:57;;;;;;;5.28;2.50;;;23.40;48.40;;;;;;6095788;23;20238;-88
2022/08/22 11:43:43;;;;;;;3.28;2.00;;;23.30;48.20;;;;;;6114756;23;20158;-89
2022/08/22 11:46:32;;;;;;;3.42;1.92;;;23.40;48.10;;;;;;6116426;23;20186;-88
2022/08/22 11:49:35;;;;;;;5.15;1.60;;;23.40;47.90;;;;;;6093151;23;20151;-87
2022/08/22 11:52:13;;;;;;;3.08;1.70;;;23.50;48.10;;;;;;6161545;23;20182;-88
2022/08/22 11:54:59;;;;;;;4.25;1.80;;;23.60;47.90;;;;;;6138401;23;20539;-89
2022/08/22 11:57:47;;;;;;;2.10;1.90;;;23.70;47.70;;;;;;6140661;23;20545;-88
2022/08/22 12:00:35;;;;;;;3.20;1.88;;;23.70;47.60;;;;;;6137032;23;20150;-88
2022/08/22 12:03:36;;;;;;;2.42;1.83;;;23.70;47.70;;;;;;6165774;23;20228;-88
2022/08/22 12:06:25;;;;;;;2.28;1.80;;;23.70;47.60;;;;;;6092299;23;20186;-89
2022/08/22 12:09:13;;;;;;;2.92;1.70;;;23.70;47.50;;;;;;6118132;23;20581;-88
2022/08/22 12:12:05;;;;;;;2.58;1.80;;;23.70;47.60;;;;;;6112936;23;20195;-89
2022/08/22 12:14:49;;;;;;;2.95;1.67;;;23.70;47.50;;;;;;6113952;23;20147;-88
2022/08/22 12:17:35;;;;;;;4.07;2.08;;;23.70;47.80;;;;;;6136444;23;20189;-88
2022/08/22 12:20:17;;;;;;;2.83;1.98;;;23.60;47.90;;;;;;6140097;23;20594;-88
2022/08/22 12:23:05;;;;;;;3.72;2.15;;;23.60;47.90;;;;;;6135182;23;20151;-87
2022/08/22 12:25:55;;;;;;;5.40;2.22;;;23.50;48.00;;;;;;6137253;23;20208;-88
2022/08/22 12:28:41;;;;;;;4.55;1.80;;;23.50;47.90;;;;;;6115327;23;20151;-88
2022/08/22 12:31:34;;;;;;;2.42;1.70;;;23.50;47.80;;;;;;6186805;23;20131;-89
2022/08/22 12:34:18;;;;;;;6.05;1.98;;;23.50;48.00;;;;;;6143852;23;20240;-88
2022/08/22 12:37:03;;;;;;;3.63;1.83;;;23.50;47.90;;;;;;6111742;23;20157;-89
2022/08/22 12:40:00;;;;;;;2.88;2.00;;;23.50;47.90;;;;;;6087804;23;20150;-88
2022/08/22 12:42:55;;;;;;;2.70;1.88;;;23.60;48.10;;;;;;6099434;23;20161;-87
2022/08/22 12:45:35;;;;;;;3.95;1.85;;;23.50;47.90;;;;;;6116953;23;20266;-88
2022/08/22 12:48:35;;;;;;;4.65;1.80;;;23.50;47.90;;;;;;6137603;23;20151;-88
2022/08/22 12:51:27;;;;;;;3.30;1.70;;;23.50;48.00;;;;;;6138812;23;20204;-89
2022/08/22 12:54:12;;;;;;;2.05;1.80;;;23.50;47.90;;;;;;6144579;23;20135;-88
2022/08/22 12:57:05;;;;;;;2.75;1.67;;;23.50;48.00;;;;;;6137701;23;20147;-88
2022/08/22 12:59:40;;;;;;;2.00;1.80;;;23.40;48.10;;;;;;6117325;23;20154;-89
2022/08/22 13:02:18;;;;;;;2.97;1.67;;;23.40;48.20;;;;;;6112287;23;20454;-88
2022/08/22 13:04:55;;;;;;;2.90;1.83;;;23.50;48.00;;;;;;6116227;23;20617;-88
2022/08/22 13:07:39;;;;;;;1.98;1.65;;;23.50;48.10;;;;;;6092519;23;20189;-88
2022/08/22 13:10:35;;;;;;;1.83;1.73;;;23.50;48.00;;;;;;6090854;23;20189;-88
2022/08/22 13:13:10;;;;;;;2.22;1.50;;;23.50;48.10;;;;;;6143456;23;20182;-88
2022/08/22 13:15:47;;;;;;;3.70;1.83;;;23.50;48.20;;;;;;6111957;23;20161;-88
2022/08/22 13:18:18;;;;;;;1.95;1.67;;;23.40;48.10;;;;;;6090092;23;20216;-88
2022/08/22 13:20:50;;;;;;;1.75;1.42;;;23.50;48.30;;;;;;6088014;23;20649;-88
2022/08/22 13:23:22;;;;;;;1.80;1.70;;;23.50;48.10;;;;;;6135980;23;20182;-88
2022/08/22 13:26:14;;;;;;;2.10;2.00;;;23.60;48.00;;;;;;6137642;23;20633;-88
2022/08/22 13:28:44;;;;;;;2.40;2.08;;;23.50;48.10;;;;;;6114950;23;20150;-88
2022/08/22 13:31:29;;;;;;;2.85;2.33;;;23.50;48.20;;;;;;6137550;23;20147;-87
2022/08/22 13:34:29;;;;;;;2.35;2.10;;;23.50;48.30;;;;;;6113710;23;20277;-87
2022/08/22 13:36:59;;;;;;;2.50;2.30;;;23.50;48.30;;;;;;6137940;23;20155;-88
2022/08/22 13:39:32;;;;;;;2.17;1.98;;;23.50;49.10;;;;;;6137357;23;20154;-87
2022/08/22 13:42:00;;;;;;;1.85;1.75;;;23.50;48.50;;;;;;6112589;23;20158;-87
2022/08/22 13:44:36;;;;;;;2.50;2.30;;;23.50;48.30;;;;;;6112976;23;20154;-88
2022/08/22 13:47:09;;;;;;;2.38;2.17;;;23.50;48.20;;;;;;6089667;23;20635;-88
2022/08/22 13:49:40;;;;;;;2.38;1.95;;;23.50;48.40;;;;;;6112328;23;20154;-87
2022/08/22 13:52:33;;;;;;;2.25;2.05;;;23.50;48.50;;;;;;6113254;23;20151;-87
2022/08/22 13:55:18;;;;;;;2.17;1.98;;;23.40;48.40;;;;;;6139105;23;20147;-88
2022/08/22 13:57:48;;;;;;;2.30;2.10;;;23.50;48.30;;;;;;6136750;23;20213;-87
2022/08/22 14:00:45;;;;;;;2.42;2.22;;;23.50;48.30;;;;;;6138021;23;20135;-87
2022/08/22 14:03:19;;;;;;;2.25;2.00;;;23.50;48.40;;;;;;6187266;23;20284;-88
2022/08/22 14:05:49;;;;;;;2.13;1.92;;;23.40;48.40;;;;;;6113978;23;20175;-88
2022/08/22 14:08:24;;;;;;;3.08;2.20;;;23.50;48.50;;;;;;6112801;23;20143;-88
2022/08/22 14:10:57;;;;;;;2.13;1.92;;;23.40;48.40;;;;;;6113311;23;20276;-88